Terminal Aerodrome Forecast
Issued by NWS

Home | Current Version | Previous Version | Text Only | Print | Product List | Glossary Off
Versions: 1 2 3 4 5 6 7 8 9 10 11 12 13 14 15 16 17

000
FTUS43 KICT 292334
TAFRSL
TAF
KRSL 292334Z 3000/3024 09006KT P6SM VCTS SCT030 BKN050CB
      TEMPO 3000/3003 VRB10G20KT 4SM TSRA BKN035CB
     FM300500 08006KT P6SM SCT015 BKN050
     FM301000 09005KT 5SM BR SCT007
     FM301400 15005KT P6SM SCT020
     FM301900 22006KT P6SM VCTS BKN040CB=

USA.gov is the U.S. government's official web portal to all federal, state and local government web resources and services.